DAL764 KSAT-KDFW
Flight info
| Callsign | DAL764 |
|---|---|
| Flight time | N/A |
| Altitude | 31000 |
| Route | YODUH1 YODUH GUTZZ BOOVE7 |
| Aircraft | A320/M-SDE3FGHIRWY/LB1 |
Departure
| Time | 2026-04-25 12:13 |
|---|---|
| Airport | San Antonio International Airport (KSAT) |
Arrival
| Time | N/A |
|---|---|
| Airport | Dallas Fort Worth International Airport (KDFW) |
| Time | Latitude | Longitude | Altitude | Speed | Heading |
|---|---|---|---|---|---|
| 2026-04-25 12:04 | 29.52871 | -98.47292 | 817 ft | 0 kts | 132° |
| 2026-04-25 12:04 | 29.52874 | -98.47295 | 818 ft | 2 kts | 133° |
| 2026-04-25 12:05 | 29.52884 | -98.47308 | 817 ft | 2 kts | 132° |
| 2026-04-25 12:05 | 29.52894 | -98.47321 | 817 ft | 2 kts | 133° |
| 2026-04-25 12:05 | 29.52904 | -98.47333 | 818 ft | 2 kts | 132° |
| 2026-04-25 12:05 | 29.52912 | -98.47343 | 818 ft | 0 kts | 133° |
| 2026-04-25 12:06 | 29.52916 | -98.47349 | 818 ft | 1 kts | 89° |
| 2026-04-25 12:06 | 29.52914 | -98.47358 | 818 ft | 0 kts | 43° |
| 2026-04-25 12:06 | 29.52908 | -98.47362 | 818 ft | 0 kts | 41° |
| 2026-04-25 12:06 | 29.52908 | -98.47363 | 818 ft | 0 kts | 41° |
| 2026-04-25 12:07 | 29.52908 | -98.47362 | 818 ft | 0 kts | 41° |
| 2026-04-25 12:08 | 29.52920 | -98.47351 | 818 ft | 5 kts | 41° |
| 2026-04-25 12:08 | 29.52971 | -98.47298 | 817 ft | 12 kts | 42° |
| 2026-04-25 12:08 | 29.53042 | -98.47264 | 817 ft | 10 kts | 307° |
| 2026-04-25 12:08 | 29.53084 | -98.47340 | 818 ft | 12 kts | 309° |
| 2026-04-25 12:09 | 29.53154 | -98.47414 | 817 ft | 14 kts | 348° |
| 2026-04-25 12:09 | 29.53250 | -98.47426 | 818 ft | 14 kts | 320° |
| 2026-04-25 12:09 | 29.53318 | -98.47512 | 818 ft | 15 kts | 311° |
| 2026-04-25 12:09 | 29.53397 | -98.47613 | 818 ft | 18 kts | 312° |
| 2026-04-25 12:10 | 29.53487 | -98.47732 | 818 ft | 20 kts | 310° |
| 2026-04-25 12:10 | 29.53582 | -98.47851 | 818 ft | 20 kts | 311° |
| 2026-04-25 12:10 | 29.53673 | -98.47971 | 818 ft | 20 kts | 312° |
| 2026-04-25 12:10 | 29.53767 | -98.48091 | 818 ft | 20 kts | 311° |
| 2026-04-25 12:11 | 29.53862 | -98.48212 | 818 ft | 20 kts | 311° |
| 2026-04-25 12:11 | 29.53955 | -98.48333 | 818 ft | 20 kts | 311° |
| 2026-04-25 12:11 | 29.54050 | -98.48456 | 818 ft | 20 kts | 312° |
| 2026-04-25 12:11 | 29.54139 | -98.48572 | 818 ft | 15 kts | 313° |
| 2026-04-25 12:12 | 29.54234 | -98.48583 | 818 ft | 15 kts | 39° |
| 2026-04-25 12:12 | 29.54241 | -98.48511 | 818 ft | 15 kts | 128° |
| 2026-04-25 12:12 | 29.54109 | -98.48344 | 818 ft | 32 kts | 132° |
| 2026-04-25 12:12 | 29.53788 | -98.47929 | 818 ft | 106 kts | 132° |
| 2026-04-25 12:13 | 29.53153 | -98.47110 | 881 ft | 159 kts | 134° |
| 2026-04-25 12:13 | 29.52422 | -98.46117 | 1451 ft | 166 kts | 126° |
| 2026-04-25 12:13 | 29.52045 | -98.44904 | 2131 ft | 169 kts | 93° |
| 2026-04-25 12:13 | 29.52434 | -98.43634 | 2668 ft | 179 kts | 51° |
| 2026-04-25 12:14 | 29.53538 | -98.42882 | 3061 ft | 196 kts | 10° |
| 2026-04-25 12:14 | 29.54899 | -98.43068 | 3463 ft | 208 kts | 332° |
| 2026-04-25 12:14 | 29.56130 | -98.44070 | 3868 ft | 227 kts | 317° |
| 2026-04-25 12:14 | 29.57432 | -98.45229 | 4374 ft | 247 kts | 327° |
| 2026-04-25 12:15 | 29.59069 | -98.46046 | 4896 ft | 267 kts | 344° |
| 2026-04-25 12:15 | 29.60927 | -98.46388 | 5533 ft | 280 kts | 356° |
| 2026-04-25 12:15 | 29.62876 | -98.46380 | 6446 ft | 281 kts | 3° |
| 2026-04-25 12:15 | 29.64815 | -98.46175 | 7364 ft | 281 kts | 5° |
| 2026-04-25 12:16 | 29.66730 | -98.45877 | 8188 ft | 283 kts | 7° |
| 2026-04-25 12:16 | 29.68687 | -98.45521 | 9012 ft | 286 kts | 7° |
| 2026-04-25 12:16 | 29.70664 | -98.45137 | 9816 ft | 290 kts | 7° |
| 2026-04-25 12:16 | 29.72634 | -98.44740 | 10561 ft | 295 kts | 7° |
| 2026-04-25 12:17 | 29.74721 | -98.44315 | 11007 ft | 312 kts | 8° |
| 2026-04-25 12:17 | 29.76903 | -98.43868 | 11452 ft | 327 kts | 8° |
| 2026-04-25 12:17 | 29.79169 | -98.43397 | 12147 ft | 332 kts | 8° |
| 2026-04-25 12:17 | 29.81456 | -98.42920 | 12899 ft | 335 kts | 8° |
| 2026-04-25 12:18 | 29.83742 | -98.42443 | 13611 ft | 339 kts | 8° |
| 2026-04-25 12:18 | 29.86085 | -98.41994 | 14312 ft | 342 kts | 5° |
| 2026-04-25 12:18 | 29.88466 | -98.41666 | 15009 ft | 346 kts | 4° |
| 2026-04-25 12:18 | 29.90874 | -98.41357 | 15691 ft | 349 kts | 3° |
| 2026-04-25 12:19 | 29.94904 | -98.40846 | 16785 ft | 356 kts | 3° |
| 2026-04-25 12:19 | 29.98229 | -98.40421 | 17656 ft | 360 kts | 2° |
| 2026-04-25 12:19 | 30.00702 | -98.40102 | 18283 ft | 363 kts | 2° |